sensor_id;sensor_type;location;lat;lon;timestamp;temperature;humidity
22173;DHT22;11252;50.596;17.648;2022-12-18T00:01:33;-4.60;92.20
22173;DHT22;11252;50.596;17.648;2022-12-18T00:04:03;-4.60;92.20
22173;DHT22;11252;50.596;17.648;2022-12-18T00:06:35;-4.50;92.20
22173;DHT22;11252;50.596;17.648;2022-12-18T00:09:03;-4.60;92.20
22173;DHT22;11252;50.596;17.648;2022-12-18T00:11:31;-4.60;92.20
22173;DHT22;11252;50.596;17.648;2022-12-18T00:13:59;-4.50;92.20
22173;DHT22;11252;50.596;17.648;2022-12-18T00:16:28;-4.50;92.20
22173;DHT22;11252;50.596;17.648;2022-12-18T00:18:57;-4.50;92.20
22173;DHT22;11252;50.596;17.648;2022-12-18T00:21:28;-4.50;92.20
22173;DHT22;11252;50.596;17.648;2022-12-18T00:23:56;-4.60;92.20
22173;DHT22;11252;50.596;17.648;2022-12-18T00:26:32;-4.60;92.20
22173;DHT22;11252;50.596;17.648;2022-12-18T00:29:02;-4.60;92.20
22173;DHT22;11252;50.596;17.648;2022-12-18T00:31:31;-4.60;92.20
22173;DHT22;11252;50.596;17.648;2022-12-18T00:33:59;-4.50;92.20
22173;DHT22;11252;50.596;17.648;2022-12-18T00:36:29;-4.50;92.20
22173;DHT22;11252;50.596;17.648;2022-12-18T00:38:57;-4.50;92.20
22173;DHT22;11252;50.596;17.648;2022-12-18T00:41:26;-4.50;92.20
22173;DHT22;11252;50.596;17.648;2022-12-18T00:44:14;-4.50;92.20
22173;DHT22;11252;50.596;17.648;2022-12-18T00:46:42;-4.50;92.20
22173;DHT22;11252;50.596;17.648;2022-12-18T00:49:10;-4.50;92.20
22173;DHT22;11252;50.596;17.648;2022-12-18T00:51:41;-4.50;92.20
22173;DHT22;11252;50.596;17.648;2022-12-18T00:54:11;-4.50;92.20
22173;DHT22;11252;50.596;17.648;2022-12-18T00:56:39;-4.50;92.20
22173;DHT22;11252;50.596;17.648;2022-12-18T00:59:15;-4.40;92.20
22173;DHT22;11252;50.596;17.648;2022-12-18T01:01:42;-4.50;92.20
22173;DHT22;11252;50.596;17.648;2022-12-18T01:04:10;-4.40;92.20
22173;DHT22;11252;50.596;17.648;2022-12-18T01:06:37;-4.40;92.20
22173;DHT22;11252;50.596;17.648;2022-12-18T01:09:05;-4.50;92.20
22173;DHT22;11252;50.596;17.648;2022-12-18T01:11:33;-4.60;92.20
22173;DHT22;11252;50.596;17.648;2022-12-18T01:14:00;-4.60;92.20
22173;DHT22;11252;50.596;17.648;2022-12-18T01:16:28;-4.60;92.20
22173;DHT22;11252;50.596;17.648;2022-12-18T01:18:55;-4.60;92.20
22173;DHT22;11252;50.596;17.648;2022-12-18T01:21:23;-4.60;92.20
22173;DHT22;11252;50.596;17.648;2022-12-18T01:23:53;-4.60;92.20
22173;DHT22;11252;50.596;17.648;2022-12-18T01:26:21;-4.60;92.20
22173;DHT22;11252;50.596;17.648;2022-12-18T01:28:48;-4.60;92.20
22173;DHT22;11252;50.596;17.648;2022-12-18T01:31:24;-4.60;92.20
22173;DHT22;11252;50.596;17.648;2022-12-18T01:33:52;-4.60;92.20
22173;DHT22;11252;50.596;17.648;2022-12-18T01:36:25;-4.60;92.20
22173;DHT22;11252;50.596;17.648;2022-12-18T01:38:53;-4.60;92.20
22173;DHT22;11252;50.596;17.648;2022-12-18T01:41:24;-4.60;92.20
22173;DHT22;11252;50.596;17.648;2022-12-18T01:46:20;-4.50;92.20
22173;DHT22;11252;50.596;17.648;2022-12-18T01:48:51;-4.50;92.20
22173;DHT22;11252;50.596;17.648;2022-12-18T01:51:20;-4.50;92.20
22173;DHT22;11252;50.596;17.648;2022-12-18T01:53:47;-4.50;92.20
22173;DHT22;11252;50.596;17.648;2022-12-18T01:56:16;-4.40;92.20
22173;DHT22;11252;50.596;17.648;2022-12-18T01:58:55;-4.50;92.20
22173;DHT22;11252;50.596;17.648;2022-12-18T02:01:24;-4.60;92.20
22173;DHT22;11252;50.596;17.648;2022-12-18T02:03:52;-4.60;92.20
22173;DHT22;11252;50.596;17.648;2022-12-18T02:06:34;-4.60;92.20
22173;DHT22;11252;50.596;17.648;2022-12-18T02:09:57;-4.60;92.20
22173;DHT22;11252;50.596;17.648;2022-12-18T02:17:22;-4.40;92.20
22173;DHT22;11252;50.596;17.648;2022-12-18T02:20:07;-4.50;92.20
22173;DHT22;11252;50.596;17.648;2022-12-18T02:27:42;-4.50;92.20
22173;DHT22;11252;50.596;17.648;2022-12-18T02:30:11;-4.50;92.20
22173;DHT22;11252;50.596;17.648;2022-12-18T02:32:42;-4.50;92.20
22173;DHT22;11252;50.596;17.648;2022-12-18T02:35:17;-4.60;92.20
22173;DHT22;11252;50.596;17.648;2022-12-18T02:37:48;-4.60;92.20
22173;DHT22;11252;50.596;17.648;2022-12-18T02:40:17;-4.60;92.20
22173;DHT22;11252;50.596;17.648;2022-12-18T02:42:45;-4.70;92.20
22173;DHT22;11252;50.596;17.648;2022-12-18T02:45:13;-4.70;92.20
22173;DHT22;11252;50.596;17.648;2022-12-18T02:47:43;-4.70;92.20
22173;DHT22;11252;50.596;17.648;2022-12-18T02:53:48;-4.70;92.20
22173;DHT22;11252;50.596;17.648;2022-12-18T02:56:11;-4.70;92.20
22173;DHT22;11252;50.596;17.648;2022-12-18T02:59:04;-4.70;92.20
22173;DHT22;11252;50.596;17.648;2022-12-18T03:01:43;-4.60;92.20
22173;DHT22;11252;50.596;17.648;2022-12-18T03:04:29;-4.60;92.20
22173;DHT22;11252;50.596;17.648;2022-12-18T03:07:02;-4.50;92.20
22173;DHT22;11252;50.596;17.648;2022-12-18T03:09:35;-4.60;92.20
22173;DHT22;11252;50.596;17.648;2022-12-18T03:12:32;-4.60;92.20
22173;DHT22;11252;50.596;17.648;2022-12-18T03:15:14;-4.60;92.20
22173;DHT22;11252;50.596;17.648;2022-12-18T03:17:55;-4.70;92.20
22173;DHT22;11252;50.596;17.648;2022-12-18T03:20:26;-4.70;92.20
22173;DHT22;11252;50.596;17.648;2022-12-18T03:23:07;-4.80;92.20
22173;DHT22;11252;50.596;17.648;2022-12-18T03:25:40;-4.80;92.20
22173;DHT22;11252;50.596;17.648;2022-12-18T03:28:15;-4.70;92.20
22173;DHT22;11252;50.596;17.648;2022-12-18T03:30:44;-4.70;92.20
22173;DHT22;11252;50.596;17.648;2022-12-18T03:33:27;-4.70;92.20
22173;DHT22;11252;50.596;17.648;2022-12-18T03:35:56;-4.60;92.20
22173;DHT22;11252;50.596;17.648;2022-12-18T03:38:24;-4.70;92.20
22173;DHT22;11252;50.596;17.648;2022-12-18T03:49:47;-4.70;92.20
22173;DHT22;11252;50.596;17.648;2022-12-18T03:52:26;-4.60;92.20
22173;DHT22;11252;50.596;17.648;2022-12-18T03:54:56;-4.60;92.20
22173;DHT22;11252;50.596;17.648;2022-12-18T03:57:28;-4.70;92.20
22173;DHT22;11252;50.596;17.648;2022-12-18T03:59:59;-4.70;92.20
22173;DHT22;11252;50.596;17.648;2022-12-18T04:02:28;-4.70;92.20
22173;DHT22;11252;50.596;17.648;2022-12-18T04:05:00;-4.80;92.20
22173;DHT22;11252;50.596;17.648;2022-12-18T04:07:30;-4.80;92.20
22173;DHT22;11252;50.596;17.648;2022-12-18T04:09:59;-4.70;92.20
22173;DHT22;11252;50.596;17.648;2022-12-18T04:12:29;-4.80;92.20
22173;DHT22;11252;50.596;17.648;2022-12-18T04:14:57;-4.70;92.20
22173;DHT22;11252;50.596;17.648;2022-12-18T04:17:24;-4.80;92.20
22173;DHT22;11252;50.596;17.648;2022-12-18T04:19:51;-4.80;92.20
22173;DHT22;11252;50.596;17.648;2022-12-18T04:22:19;-4.90;92.20
22173;DHT22;11252;50.596;17.648;2022-12-18T04:24:46;-4.80;92.20
22173;DHT22;11252;50.596;17.648;2022-12-18T04:27:14;-4.90;92.20
22173;DHT22;11252;50.596;17.648;2022-12-18T04:29:41;-4.90;92.20
22173;DHT22;11252;50.596;17.648;2022-12-18T04:32:09;-4.90;92.20
22173;DHT22;11252;50.596;17.648;2022-12-18T04:34:36;-4.90;92.20
22173;DHT22;11252;50.596;17.648;2022-12-18T04:37:03;-4.90;92.20
22173;DHT22;11252;50.596;17.648;2022-12-18T04:39:31;-4.90;92.20
22173;DHT22;11252;50.596;17.648;2022-12-18T04:42:01;-4.90;92.20
22173;DHT22;11252;50.596;17.648;2022-12-18T04:44:28;-4.90;92.20
22173;DHT22;11252;50.596;17.648;2022-12-18T04:46:56;-4.90;92.20
22173;DHT22;11252;50.596;17.648;2022-12-18T04:49:23;-4.90;92.20
22173;DHT22;11252;50.596;17.648;2022-12-18T04:51:50;-4.90;92.20
22173;DHT22;11252;50.596;17.648;2022-12-18T04:54:21;-4.90;92.20
22173;DHT22;11252;50.596;17.648;2022-12-18T04:56:49;-4.80;92.20
22173;DHT22;11252;50.596;17.648;2022-12-18T04:59:16;-4.80;92.20
22173;DHT22;11252;50.596;17.648;2022-12-18T05:01:44;-4.90;92.20
22173;DHT22;11252;50.596;17.648;2022-12-18T05:04:12;-4.80;92.20
22173;DHT22;11252;50.596;17.648;2022-12-18T05:06:40;-4.90;92.20
22173;DHT22;11252;50.596;17.648;2022-12-18T05:09:08;-4.80;92.20
22173;DHT22;11252;50.596;17.648;2022-12-18T05:11:35;-4.70;92.20
22173;DHT22;11252;50.596;17.648;2022-12-18T05:14:03;-4.70;92.20
22173;DHT22;11252;50.596;17.648;2022-12-18T05:16:30;-4.70;92.20
22173;DHT22;11252;50.596;17.648;2022-12-18T05:18:58;-4.70;92.20
22173;DHT22;11252;50.596;17.648;2022-12-18T05:21:25;-4.70;92.20
22173;DHT22;11252;50.596;17.648;2022-12-18T05:23:53;-4.70;92.20
22173;DHT22;11252;50.596;17.648;2022-12-18T05:26:20;-4.70;92.20
22173;DHT22;11252;50.596;17.648;2022-12-18T05:28:48;-4.70;92.20
22173;DHT22;11252;50.596;17.648;2022-12-18T05:31:15;-4.70;92.20
22173;DHT22;11252;50.596;17.648;2022-12-18T05:33:45;-4.70;92.20
22173;DHT22;11252;50.596;17.648;2022-12-18T05:36:13;-4.70;92.20
22173;DHT22;11252;50.596;17.648;2022-12-18T05:38:40;-4.70;92.20
22173;DHT22;11252;50.596;17.648;2022-12-18T05:41:08;-4.70;92.20
22173;DHT22;11252;50.596;17.648;2022-12-18T05:43:38;-4.70;92.20
22173;DHT22;11252;50.596;17.648;2022-12-18T05:46:10;-4.70;92.20
22173;DHT22;11252;50.596;17.648;2022-12-18T05:48:38;-4.80;92.20
22173;DHT22;11252;50.596;17.648;2022-12-18T05:51:11;-4.70;92.20
22173;DHT22;11252;50.596;17.648;2022-12-18T05:53:39;-4.70;92.20
22173;DHT22;11252;50.596;17.648;2022-12-18T05:56:17;-4.70;92.20
22173;DHT22;11252;50.596;17.648;2022-12-18T05:58:47;-4.60;92.20
22173;DHT22;11252;50.596;17.648;2022-12-18T06:01:20;-4.60;92.20
22173;DHT22;11252;50.596;17.648;2022-12-18T06:03:48;-4.60;92.20
22173;DHT22;11252;50.596;17.648;2022-12-18T06:06:22;-4.70;92.20
22173;DHT22;11252;50.596;17.648;2022-12-18T06:08:50;-4.70;92.20
22173;DHT22;11252;50.596;17.648;2022-12-18T06:11:20;-4.80;92.20
22173;DHT22;11252;50.596;17.648;2022-12-18T06:13:54;-4.80;92.20
22173;DHT22;11252;50.596;17.648;2022-12-18T06:16:28;-4.80;92.20
22173;DHT22;11252;50.596;17.648;2022-12-18T06:18:58;-4.80;92.20
22173;DHT22;11252;50.596;17.648;2022-12-18T06:21:26;-4.70;92.20
22173;DHT22;11252;50.596;17.648;2022-12-18T06:23:54;-4.70;92.20
22173;DHT22;11252;50.596;17.648;2022-12-18T06:26:21;-4.70;92.20
22173;DHT22;11252;50.596;17.648;2022-12-18T06:28:54;-4.70;92.20
22173;DHT22;11252;50.596;17.648;2022-12-18T06:31:21;-4.60;92.20
22173;DHT22;11252;50.596;17.648;2022-12-18T06:33:49;-4.60;92.20
22173;DHT22;11252;50.596;17.648;2022-12-18T06:36:18;-4.60;92.20
22173;DHT22;11252;50.596;17.648;2022-12-18T06:38:46;-4.60;92.20
22173;DHT22;11252;50.596;17.648;2022-12-18T06:41:16;-4.60;92.20
22173;DHT22;11252;50.596;17.648;2022-12-18T06:43:44;-4.60;92.20
22173;DHT22;11252;50.596;17.648;2022-12-18T06:46:12;-4.60;92.20
22173;DHT22;11252;50.596;17.648;2022-12-18T06:48:39;-4.60;92.20
22173;DHT22;11252;50.596;17.648;2022-12-18T06:51:07;-4.50;92.20
22173;DHT22;11252;50.596;17.648;2022-12-18T06:53:35;-4.50;92.20
22173;DHT22;11252;50.596;17.648;2022-12-18T06:56:04;-4.50;92.20
22173;DHT22;11252;50.596;17.648;2022-12-18T06:58:37;-4.40;92.20
22173;DHT22;11252;50.596;17.648;2022-12-18T07:01:07;-4.50;92.20
22173;DHT22;11252;50.596;17.648;2022-12-18T07:03:35;-4.50;92.20
22173;DHT22;11252;50.596;17.648;2022-12-18T07:06:03;-4.50;92.20
22173;DHT22;11252;50.596;17.648;2022-12-18T07:08:31;-4.40;92.20
22173;DHT22;11252;50.596;17.648;2022-12-18T07:10:59;-4.40;92.20
22173;DHT22;11252;50.596;17.648;2022-12-18T07:13:26;-4.50;92.20
22173;DHT22;11252;50.596;17.648;2022-12-18T07:15:53;-4.60;92.20
22173;DHT22;11252;50.596;17.648;2022-12-18T07:18:21;-4.60;92.20
22173;DHT22;11252;50.596;17.648;2022-12-18T07:20:48;-4.50;92.20
22173;DHT22;11252;50.596;17.648;2022-12-18T07:23:15;-4.50;92.20
22173;DHT22;11252;50.596;17.648;2022-12-18T07:25:42;-4.50;92.20
22173;DHT22;11252;50.596;17.648;2022-12-18T07:28:10;-4.40;92.20
22173;DHT22;11252;50.596;17.648;2022-12-18T07:30:43;-4.40;92.20
22173;DHT22;11252;50.596;17.648;2022-12-18T07:33:10;-4.30;92.20
22173;DHT22;11252;50.596;17.648;2022-12-18T07:35:37;-4.30;92.20
22173;DHT22;11252;50.596;17.648;2022-12-18T07:38:05;-4.30;92.20
22173;DHT22;11252;50.596;17.648;2022-12-18T07:40:32;-4.40;92.20
22173;DHT22;11252;50.596;17.648;2022-12-18T07:43:00;-4.40;92.20
22173;DHT22;11252;50.596;17.648;2022-12-18T07:45:30;-4.30;92.20
22173;DHT22;11252;50.596;17.648;2022-12-18T07:47:57;-4.30;92.20
22173;DHT22;11252;50.596;17.648;2022-12-18T07:50:25;-4.20;92.20
22173;DHT22;11252;50.596;17.648;2022-12-18T07:52:52;-4.30;92.20
22173;DHT22;11252;50.596;17.648;2022-12-18T07:55:19;-4.30;92.20
22173;DHT22;11252;50.596;17.648;2022-12-18T07:57:47;-4.30;92.20
22173;DHT22;11252;50.596;17.648;2022-12-18T08:00:17;-4.20;92.20
22173;DHT22;11252;50.596;17.648;2022-12-18T08:02:45;-4.20;92.20
22173;DHT22;11252;50.596;17.648;2022-12-18T08:05:14;-4.20;92.20
22173;DHT22;11252;50.596;17.648;2022-12-18T08:07:41;-4.20;92.20
22173;DHT22;11252;50.596;17.648;2022-12-18T08:10:09;-4.10;92.20
22173;DHT22;11252;50.596;17.648;2022-12-18T08:12:36;-4.10;92.20
22173;DHT22;11252;50.596;17.648;2022-12-18T08:15:04;-4.10;92.20
22173;DHT22;11252;50.596;17.648;2022-12-18T08:17:32;-4.10;92.20
22173;DHT22;11252;50.596;17.648;2022-12-18T08:19:59;-4.10;92.20
22173;DHT22;11252;50.596;17.648;2022-12-18T08:22:27;-4.00;92.20
22173;DHT22;11252;50.596;17.648;2022-12-18T08:24:54;-4.00;92.20
22173;DHT22;11252;50.596;17.648;2022-12-18T08:27:22;-4.00;92.20
22173;DHT22;11252;50.596;17.648;2022-12-18T08:29:57;-3.90;92.20
22173;DHT22;11252;50.596;17.648;2022-12-18T08:32:25;-3.90;92.20
22173;DHT22;11252;50.596;17.648;2022-12-18T08:34:53;-3.80;92.20
22173;DHT22;11252;50.596;17.648;2022-12-18T08:37:21;-3.70;92.20
22173;DHT22;11252;50.596;17.648;2022-12-18T08:39:48;-3.60;92.20
22173;DHT22;11252;50.596;17.648;2022-12-18T08:42:15;-3.60;92.20
22173;DHT22;11252;50.596;17.648;2022-12-18T08:45:03;-3.50;92.20
22173;DHT22;11252;50.596;17.648;2022-12-18T08:47:30;-3.50;92.20
22173;DHT22;11252;50.596;17.648;2022-12-18T08:49:58;-3.40;92.20
22173;DHT22;11252;50.596;17.648;2022-12-18T08:52:25;-3.30;92.20
22173;DHT22;11252;50.596;17.648;2022-12-18T08:54:52;-3.30;92.20
22173;DHT22;11252;50.596;17.648;2022-12-18T08:57:20;-3.30;92.20
22173;DHT22;11252;50.596;17.648;2022-12-18T08:59:47;-3.20;92.20
22173;DHT22;11252;50.596;17.648;2022-12-18T09:02:15;-3.10;92.20
22173;DHT22;11252;50.596;17.648;2022-12-18T09:04:42;-3.00;92.20
22173;DHT22;11252;50.596;17.648;2022-12-18T09:07:12;-3.10;92.20
22173;DHT22;11252;50.596;17.648;2022-12-18T09:09:39;-3.10;92.20
22173;DHT22;11252;50.596;17.648;2022-12-18T09:12:07;-3.00;92.20
22173;DHT22;11252;50.596;17.648;2022-12-18T09:14:35;-3.00;92.20
22173;DHT22;11252;50.596;17.648;2022-12-18T09:17:02;-3.10;92.20
22173;DHT22;11252;50.596;17.648;2022-12-18T09:19:31;-3.10;92.20
22173;DHT22;11252;50.596;17.648;2022-12-18T09:21:58;-3.10;92.20
22173;DHT22;11252;50.596;17.648;2022-12-18T09:24:25;-3.00;92.20
22173;DHT22;11252;50.596;17.648;2022-12-18T09:26:53;-3.00;92.20
22173;DHT22;11252;50.596;17.648;2022-12-18T09:29:23;-3.00;92.20
22173;DHT22;11252;50.596;17.648;2022-12-18T09:31:51;-3.00;92.20
22173;DHT22;11252;50.596;17.648;2022-12-18T09:34:18;-3.00;92.20
22173;DHT22;11252;50.596;17.648;2022-12-18T09:36:48;-3.00;92.20
22173;DHT22;11252;50.596;17.648;2022-12-18T09:39:16;-3.00;92.20
22173;DHT22;11252;50.596;17.648;2022-12-18T09:41:57;-3.00;92.20
22173;DHT22;11252;50.596;17.648;2022-12-18T09:46:59;-3.20;92.20
22173;DHT22;11252;50.596;17.648;2022-12-18T09:49:30;-3.10;92.20
22173;DHT22;11252;50.596;17.648;2022-12-18T09:52:09;-3.10;92.20
22173;DHT22;11252;50.596;17.648;2022-12-18T09:54:43;-3.10;92.20
22173;DHT22;11252;50.596;17.648;2022-12-18T09:57:17;-3.10;92.20
22173;DHT22;11252;50.596;17.648;2022-12-18T09:59:50;-3.00;92.20
22173;DHT22;11252;50.596;17.648;2022-12-18T10:02:23;-3.00;92.20
22173;DHT22;11252;50.596;17.648;2022-12-18T10:05:07;-3.00;92.20
22173;DHT22;11252;50.596;17.648;2022-12-18T10:07:58;-2.90;92.20
22173;DHT22;11252;50.596;17.648;2022-12-18T10:13:22;-3.00;92.20
22173;DHT22;11252;50.596;17.648;2022-12-18T10:16:12;-2.90;92.20
22173;DHT22;11252;50.596;17.648;2022-12-18T10:26:35;-3.20;92.20
22173;DHT22;11252;50.596;17.648;2022-12-18T10:29:12;-3.10;92.20
22173;DHT22;11252;50.596;17.648;2022-12-18T10:31:39;-3.00;92.20
22173;DHT22;11252;50.596;17.648;2022-12-18T10:34:13;-2.80;92.20
22173;DHT22;11252;50.596;17.648;2022-12-18T10:36:41;-2.70;92.20
22173;DHT22;11252;50.596;17.648;2022-12-18T10:39:19;-2.60;92.20
22173;DHT22;11252;50.596;17.648;2022-12-18T10:41:48;-2.60;92.20
22173;DHT22;11252;50.596;17.648;2022-12-18T10:44:19;-2.60;92.20
22173;DHT22;11252;50.596;17.648;2022-12-18T10:46:55;-2.80;92.20
22173;DHT22;11252;50.596;17.648;2022-12-18T10:49:49;-2.70;92.20
22173;DHT22;11252;50.596;17.648;2022-12-18T10:52:22;-2.70;92.20
22173;DHT22;11252;50.596;17.648;2022-12-18T10:54:55;-2.70;92.20
22173;DHT22;11252;50.596;17.648;2022-12-18T10:59:57;-2.70;92.20
22173;DHT22;11252;50.596;17.648;2022-12-18T11:02:35;-2.70;92.20
22173;DHT22;11252;50.596;17.648;2022-12-18T11:07:57;-2.50;92.20
22173;DHT22;11252;50.596;17.648;2022-12-18T11:10:36;-2.60;92.20
22173;DHT22;11252;50.596;17.648;2022-12-18T11:13:22;-2.80;92.20
22173;DHT22;11252;50.596;17.648;2022-12-18T11:15:50;-3.00;92.20
22173;DHT22;11252;50.596;17.648;2022-12-18T11:18:28;-3.10;92.20
22173;DHT22;11252;50.596;17.648;2022-12-18T11:20:58;-3.20;92.20
22173;DHT22;11252;50.596;17.648;2022-12-18T11:23:27;-3.20;92.20
22173;DHT22;11252;50.596;17.648;2022-12-18T11:25:57;-3.10;92.20
22173;DHT22;11252;50.596;17.648;2022-12-18T11:28:41;-3.20;92.20
22173;DHT22;11252;50.596;17.648;2022-12-18T11:31:28;-3.30;92.20
22173;DHT22;11252;50.596;17.648;2022-12-18T11:36:46;-3.30;92.20
22173;DHT22;11252;50.596;17.648;2022-12-18T11:39:44;-3.30;92.20
22173;DHT22;11252;50.596;17.648;2022-12-18T11:45:28;-3.20;92.20
22173;DHT22;11252;50.596;17.648;2022-12-18T11:48:01;-3.00;92.20
22173;DHT22;11252;50.596;17.648;2022-12-18T11:53:12;-2.80;92.20
22173;DHT22;11252;50.596;17.648;2022-12-18T11:55:49;-2.90;92.20
22173;DHT22;11252;50.596;17.648;2022-12-18T12:12:53;-3.80;92.20
22173;DHT22;11252;50.596;17.648;2022-12-18T12:24:23;-3.50;92.20
22173;DHT22;11252;50.596;17.648;2022-12-18T12:30:07;-3.30;92.20
22173;DHT22;11252;50.596;17.648;2022-12-18T12:32:57;-3.30;92.20
22173;DHT22;11252;50.596;17.648;2022-12-18T12:35:32;-3.50;92.20
22173;DHT22;11252;50.596;17.648;2022-12-18T12:40:59;-3.30;92.20
22173;DHT22;11252;50.596;17.648;2022-12-18T12:43:48;-3.60;92.20
22173;DHT22;11252;50.596;17.648;2022-12-18T12:46:19;-3.60;92.20
22173;DHT22;11252;50.596;17.648;2022-12-18T12:48:55;-3.60;92.20
22173;DHT22;11252;50.596;17.648;2022-12-18T12:51:40;-3.50;92.20
22173;DHT22;11252;50.596;17.648;2022-12-18T12:54:19;-3.50;92.20
22173;DHT22;11252;50.596;17.648;2022-12-18T12:56:50;-3.80;92.20
22173;DHT22;11252;50.596;17.648;2022-12-18T12:59:26;-3.70;92.20
22173;DHT22;11252;50.596;17.648;2022-12-18T13:02:29;-3.80;92.20
22173;DHT22;11252;50.596;17.648;2022-12-18T13:08:09;-3.70;92.20
22173;DHT22;11252;50.596;17.648;2022-12-18T13:10:39;-3.60;92.20
22173;DHT22;11252;50.596;17.648;2022-12-18T13:18:23;-3.40;92.20
22173;DHT22;11252;50.596;17.648;2022-12-18T13:23:31;-3.60;92.20
22173;DHT22;11252;50.596;17.648;2022-12-18T13:34:23;-4.30;92.20
22173;DHT22;11252;50.596;17.648;2022-12-18T13:36:56;-4.40;92.20
22173;DHT22;11252;50.596;17.648;2022-12-18T13:39:31;-4.40;92.20
22173;DHT22;11252;50.596;17.648;2022-12-18T13:44:41;-4.40;92.20
22173;DHT22;11252;50.596;17.648;2022-12-18T13:50:09;-4.40;92.20
22173;DHT22;11252;50.596;17.648;2022-12-18T13:52:39;-4.50;92.20
22173;DHT22;11252;50.596;17.648;2022-12-18T13:55:16;-4.50;92.20
22173;DHT22;11252;50.596;17.648;2022-12-18T13:57:46;-4.50;92.20
22173;DHT22;11252;50.596;17.648;2022-12-18T14:02:56;-4.50;92.20
22173;DHT22;11252;50.596;17.648;2022-12-18T14:05:35;-4.70;92.20
22173;DHT22;11252;50.596;17.648;2022-12-18T14:08:14;-4.80;92.20
22173;DHT22;11252;50.596;17.648;2022-12-18T14:10:45;-4.80;92.20
22173;DHT22;11252;50.596;17.648;2022-12-18T14:13:26;-4.80;92.20
22173;DHT22;11252;50.596;17.648;2022-12-18T14:15:56;-4.80;92.20
22173;DHT22;11252;50.596;17.648;2022-12-18T14:21:06;-5.00;92.20
22173;DHT22;11252;50.596;17.648;2022-12-18T14:23:42;-5.10;92.20
22173;DHT22;11252;50.596;17.648;2022-12-18T14:26:27;-5.10;92.20
22173;DHT22;11252;50.596;17.648;2022-12-18T14:28:58;-5.10;92.20
22173;DHT22;11252;50.596;17.648;2022-12-18T14:31:30;-5.10;92.20
22173;DHT22;11252;50.596;17.648;2022-12-18T14:33:58;-5.20;92.20
22173;DHT22;11252;50.596;17.648;2022-12-18T14:36:28;-5.20;92.20
22173;DHT22;11252;50.596;17.648;2022-12-18T14:38:57;-5.30;92.20
22173;DHT22;11252;50.596;17.648;2022-12-18T14:41:28;-5.30;92.20
22173;DHT22;11252;50.596;17.648;2022-12-18T14:44:05;-5.40;92.20
22173;DHT22;11252;50.596;17.648;2022-12-18T14:46:44;-5.50;92.20
22173;DHT22;11252;50.596;17.648;2022-12-18T14:51:54;-5.70;92.20
22173;DHT22;11252;50.596;17.648;2022-12-18T14:54:23;-5.80;92.20
22173;DHT22;11252;50.596;17.648;2022-12-18T14:57:05;-5.80;92.20
22173;DHT22;11252;50.596;17.648;2022-12-18T14:59:33;-5.90;92.20
22173;DHT22;11252;50.596;17.648;2022-12-18T15:02:20;-5.90;92.20
22173;DHT22;11252;50.596;17.648;2022-12-18T15:05:00;-6.00;92.20
22173;DHT22;11252;50.596;17.648;2022-12-18T15:07:43;-6.00;92.20
22173;DHT22;11252;50.596;17.648;2022-12-18T15:10:55;-6.10;92.20
22173;DHT22;11252;50.596;17.648;2022-12-18T15:20:57;-6.30;92.20
22173;DHT22;11252;50.596;17.648;2022-12-18T15:23:51;-6.40;92.20
22173;DHT22;11252;50.596;17.648;2022-12-18T15:26:21;-6.40;92.20
22173;DHT22;11252;50.596;17.648;2022-12-18T15:28:56;-6.50;92.20
22173;DHT22;11252;50.596;17.648;2022-12-18T15:31:31;-6.60;92.20
22173;DHT22;11252;50.596;17.648;2022-12-18T15:34:10;-6.60;92.20
22173;DHT22;11252;50.596;17.648;2022-12-18T15:36:39;-6.70;92.20
22173;DHT22;11252;50.596;17.648;2022-12-18T15:39:11;-6.70;92.20
22173;DHT22;11252;50.596;17.648;2022-12-18T15:41:39;-6.70;92.20
22173;DHT22;11252;50.596;17.648;2022-12-18T15:44:33;-6.70;92.20
22173;DHT22;11252;50.596;17.648;2022-12-18T15:47:00;-6.70;92.20
22173;DHT22;11252;50.596;17.648;2022-12-18T15:49:28;-6.80;92.20
22173;DHT22;11252;50.596;17.648;2022-12-18T15:51:58;-6.70;92.20
22173;DHT22;11252;50.596;17.648;2022-12-18T15:54:26;-6.70;92.20
22173;DHT22;11252;50.596;17.648;2022-12-18T15:57:12;-6.70;92.20
22173;DHT22;11252;50.596;17.648;2022-12-18T15:59:56;-6.70;92.20
22173;DHT22;11252;50.596;17.648;2022-12-18T16:02:25;-6.70;92.20
22173;DHT22;11252;50.596;17.648;2022-12-18T16:04:54;-6.80;92.20
22173;DHT22;11252;50.596;17.648;2022-12-18T16:07:21;-6.90;92.20
22173;DHT22;11252;50.596;17.648;2022-12-18T16:09:51;-6.90;92.20
22173;DHT22;11252;50.596;17.648;2022-12-18T16:12:23;-6.90;92.20
22173;DHT22;11252;50.596;17.648;2022-12-18T16:14:51;-6.90;92.20
22173;DHT22;11252;50.596;17.648;2022-12-18T16:17:19;-6.90;92.20
22173;DHT22;11252;50.596;17.648;2022-12-18T16:19:46;-6.90;92.20
22173;DHT22;11252;50.596;17.648;2022-12-18T16:22:22;-6.80;92.20
22173;DHT22;11252;50.596;17.648;2022-12-18T16:24:51;-6.80;92.20
22173;DHT22;11252;50.596;17.648;2022-12-18T16:27:20;-6.80;92.20
22173;DHT22;11252;50.596;17.648;2022-12-18T16:29:48;-6.90;92.20
22173;DHT22;11252;50.596;17.648;2022-12-18T16:32:18;-6.90;92.20
22173;DHT22;11252;50.596;17.648;2022-12-18T16:34:46;-6.90;92.20
22173;DHT22;11252;50.596;17.648;2022-12-18T16:37:15;-7.00;92.20
22173;DHT22;11252;50.596;17.648;2022-12-18T16:39:43;-7.00;92.20
22173;DHT22;11252;50.596;17.648;2022-12-18T16:42:18;-7.10;92.20
22173;DHT22;11252;50.596;17.648;2022-12-18T16:44:47;-7.10;92.20
22173;DHT22;11252;50.596;17.648;2022-12-18T16:47:16;-7.20;92.20
22173;DHT22;11252;50.596;17.648;2022-12-18T16:49:44;-7.20;92.20
22173;DHT22;11252;50.596;17.648;2022-12-18T16:52:13;-7.20;92.20
22173;DHT22;11252;50.596;17.648;2022-12-18T16:54:40;-7.30;92.20
22173;DHT22;11252;50.596;17.648;2022-12-18T16:57:12;-7.30;92.20
22173;DHT22;11252;50.596;17.648;2022-12-18T16:59:40;-7.30;92.20
22173;DHT22;11252;50.596;17.648;2022-12-18T17:02:25;-7.30;92.20
22173;DHT22;11252;50.596;17.648;2022-12-18T17:04:55;-7.20;92.20
22173;DHT22;11252;50.596;17.648;2022-12-18T17:07:24;-7.20;92.20
22173;DHT22;11252;50.596;17.648;2022-12-18T17:09:52;-7.20;92.20
22173;DHT22;11252;50.596;17.648;2022-12-18T17:12:21;-7.20;92.20
22173;DHT22;11252;50.596;17.648;2022-12-18T17:14:51;-7.30;92.20
22173;DHT22;11252;50.596;17.648;2022-12-18T17:17:18;-7.30;92.20
22173;DHT22;11252;50.596;17.648;2022-12-18T17:19:49;-7.30;92.20
22173;DHT22;11252;50.596;17.648;2022-12-18T17:22:17;-7.40;92.20
22173;DHT22;11252;50.596;17.648;2022-12-18T17:24:45;-7.30;92.20
22173;DHT22;11252;50.596;17.648;2022-12-18T17:27:13;-7.30;92.20
22173;DHT22;11252;50.596;17.648;2022-12-18T17:29:43;-7.30;92.20
22173;DHT22;11252;50.596;17.648;2022-12-18T17:32:15;-7.30;92.20
22173;DHT22;11252;50.596;17.648;2022-12-18T17:34:43;-7.40;92.20
22173;DHT22;11252;50.596;17.648;2022-12-18T17:37:13;-7.50;92.20
22173;DHT22;11252;50.596;17.648;2022-12-18T17:39:40;-7.50;92.20
22173;DHT22;11252;50.596;17.648;2022-12-18T17:42:08;-7.40;92.20
22173;DHT22;11252;50.596;17.648;2022-12-18T17:44:42;-7.50;92.20